createdAt,value
2023-02-27T00:01:01.078Z,4.05
2023-02-27T00:03:28.661Z,3.13
2023-02-27T00:05:58.377Z,3.45
2023-02-27T00:08:25.930Z,2.47
2023-02-27T00:10:53.282Z,2.50
2023-02-27T00:13:22.678Z,2.45
2023-02-27T00:15:51.039Z,2.05
2023-02-27T00:18:20.746Z,2.35
2023-02-27T00:20:49.312Z,2.75
2023-02-27T00:23:16.722Z,2.30
2023-02-27T00:25:46.450Z,3.22
2023-02-27T00:28:20.374Z,2.08
2023-02-27T00:30:48.057Z,3.67
2023-02-27T00:33:15.287Z,2.53
2023-02-27T00:35:44.864Z,2.67
2023-02-27T00:38:12.215Z,2.70
2023-02-27T00:40:39.666Z,2.30
2023-02-27T00:43:11.670Z,2.72
2023-02-27T00:45:38.987Z,2.80
2023-02-27T00:48:06.377Z,2.53
2023-02-27T00:50:33.536Z,2.58
2023-02-27T00:53:01.097Z,2.22
2023-02-27T00:55:30.457Z,1.98
2023-02-27T00:58:01.012Z,2.05
2023-02-27T01:00:28.878Z,2.53
2023-02-27T01:02:58.297Z,2.55
2023-02-27T01:05:25.753Z,3.08
2023-02-27T01:07:58.635Z,3.08
2023-02-27T01:10:25.759Z,3.60
2023-02-27T01:12:57.721Z,2.55
2023-02-27T01:15:28.444Z,2.83
2023-02-27T01:17:57.782Z,3.20
2023-02-27T01:20:24.953Z,1.98
2023-02-27T01:22:52.512Z,2.80
2023-02-27T01:25:19.705Z,2.22
2023-02-27T01:27:46.878Z,3.83
2023-02-27T01:30:16.845Z,2.10
2023-02-27T01:32:45.361Z,1.27
2023-02-27T01:35:13.123Z,2.08
2023-02-27T01:37:40.565Z,3.53
2023-02-27T01:40:08.938Z,2.10
2023-02-27T01:42:36.373Z,2.90
2023-02-27T01:45:22.549Z,1.85
2023-02-27T01:47:57.446Z,2.42
2023-02-27T01:50:26.853Z,3.15
2023-02-27T01:52:58.776Z,2.28
2023-02-27T01:55:27.742Z,2.25
2023-02-27T01:57:57.485Z,2.45
2023-02-27T02:00:28.001Z,1.83
2023-02-27T02:03:19.441Z,1.83
2023-02-27T02:05:47.329Z,3.05
2023-02-27T02:08:19.338Z,3.05
2023-02-27T02:10:50.170Z,2.40
2023-02-27T02:13:18.767Z,2.85
2023-02-27T02:16:04.166Z,2.25
2023-02-27T02:18:55.160Z,3.88
2023-02-27T02:21:49.475Z,1.70
2023-02-27T02:24:44.178Z,2.25
2023-02-27T02:27:25.852Z,2.58
2023-02-27T02:30:32.813Z,2.08
2023-02-27T02:33:28.724Z,2.38
2023-02-27T02:36:09.372Z,2.42
2023-02-27T02:38:49.378Z,2.22
2023-02-27T02:41:22.811Z,1.38
2023-02-27T02:46:49.696Z,1.65
2023-02-27T02:49:22.202Z,1.92
2023-02-27T02:52:20.558Z,2.17
2023-02-27T02:54:50.627Z,1.65
2023-02-27T02:57:29.750Z,2.55
2023-02-27T03:00:00.890Z,1.45
2023-02-27T03:02:35.683Z,2.15
2023-02-27T03:05:16.503Z,2.67
2023-02-27T03:07:51.487Z,1.73
2023-02-27T03:10:26.753Z,2.40
2023-02-27T03:13:02.020Z,1.67
2023-02-27T03:15:40.767Z,2.03
2023-02-27T03:18:19.656Z,1.88
2023-02-27T03:20:55.943Z,2.50
2023-02-27T03:23:38.409Z,2.17
2023-02-27T03:26:09.516Z,2.47
2023-02-27T03:28:50.023Z,2.00
2023-02-27T03:31:25.629Z,1.75
2023-02-27T03:34:09.066Z,3.25
2023-02-27T03:36:39.503Z,1.73
2023-02-27T03:39:32.680Z,1.77
2023-02-27T03:42:03.284Z,2.00
2023-02-27T03:45:00.728Z,4.20
2023-02-27T03:47:28.864Z,1.52
2023-02-27T03:49:56.859Z,2.78
2023-02-27T03:52:26.074Z,1.58
2023-02-27T03:54:59.952Z,1.23
2023-02-27T03:57:28.050Z,1.55
2023-02-27T03:59:55.739Z,1.80
2023-02-27T04:02:23.319Z,1.60
2023-02-27T04:04:50.818Z,1.73
2023-02-27T04:07:50.552Z,2.15
2023-02-27T04:10:49.528Z,1.88
2023-02-27T04:13:42.714Z,2.15
2023-02-27T04:16:15.522Z,1.40
2023-02-27T04:19:01.361Z,2.38
2023-02-27T04:21:40.374Z,3.58
2023-02-27T04:24:34.471Z,3.63
2023-02-27T04:27:40.788Z,4.30
2023-02-27T04:30:43.250Z,4.07
2023-02-27T04:33:26.558Z,4.22
2023-02-27T04:36:02.135Z,2.20
2023-02-27T04:38:44.775Z,1.95
2023-02-27T04:41:29.571Z,2.55
2023-02-27T04:44:01.983Z,3.38
2023-02-27T04:46:34.551Z,2.10
2023-02-27T04:49:15.161Z,2.80
2023-02-27T04:51:54.668Z,2.22
2023-02-27T04:54:36.137Z,3.08
2023-02-27T04:57:10.154Z,2.33
2023-02-27T04:59:43.148Z,2.75
2023-02-27T05:02:18.555Z,2.78
2023-02-27T05:04:49.098Z,2.42
2023-02-27T05:07:24.272Z,2.45
2023-02-27T05:10:15.089Z,2.40
2023-02-27T05:12:51.449Z,1.95
2023-02-27T05:16:05.729Z,3.35
2023-02-27T05:18:34.490Z,3.03
2023-02-27T05:21:01.545Z,3.13
2023-02-27T05:24:04.059Z,3.35
2023-02-27T05:27:10.074Z,2.33
2023-02-27T05:29:48.900Z,2.97
2023-02-27T05:32:36.624Z,3.33
2023-02-27T05:35:09.147Z,2.30
2023-02-27T05:37:51.262Z,2.47
2023-02-27T05:40:37.019Z,1.30
2023-02-27T05:43:16.202Z,1.77
2023-02-27T05:45:48.073Z,2.33
2023-02-27T05:48:24.221Z,2.10
2023-02-27T05:50:53.645Z,2.13
2023-02-27T05:53:24.940Z,2.10
2023-02-27T05:56:02.016Z,1.63
2023-02-27T05:58:47.878Z,2.20
2023-02-27T06:01:15.840Z,2.05
2023-02-27T06:03:45.818Z,2.08
2023-02-27T06:06:18.619Z,2.95
2023-02-27T06:08:46.478Z,2.63
2023-02-27T06:11:14.118Z,1.83
2023-02-27T06:13:42.227Z,3.75
2023-02-27T06:16:12.709Z,2.10
2023-02-27T06:18:40.128Z,2.22
2023-02-27T06:21:09.846Z,3.63
2023-02-27T06:23:37.504Z,2.35
2023-02-27T06:26:04.925Z,2.65
2023-02-27T06:28:34.670Z,2.17
2023-02-27T06:31:04.150Z,3.90
2023-02-27T06:33:31.503Z,3.50
2023-02-27T06:36:01.046Z,3.38
2023-02-27T06:38:28.420Z,5.38
2023-02-27T06:40:55.728Z,2.97
2023-02-27T06:43:23.209Z,3.58
2023-02-27T06:45:54.170Z,4.05
2023-02-27T06:48:21.387Z,7.15
2023-02-27T06:50:53.596Z,5.03
2023-02-27T06:53:20.949Z,4.85
2023-02-27T06:55:50.440Z,3.22
2023-02-27T06:58:18.121Z,3.50
2023-02-27T07:00:48.425Z,3.30
2023-02-27T07:03:15.736Z,6.45
2023-02-27T07:05:43.597Z,4.15
2023-02-27T07:08:12.936Z,5.40
2023-02-27T07:10:42.836Z,3.22
2023-02-27T07:13:17.885Z,3.10
2023-02-27T07:15:46.714Z,4.05
2023-02-27T07:18:16.453Z,4.22
2023-02-27T07:20:48.141Z,4.78
2023-02-27T07:23:15.276Z,2.42
2023-02-27T07:25:46.615Z,2.83
2023-02-27T07:28:14.173Z,3.38
2023-02-27T07:30:41.874Z,3.30
2023-02-27T07:33:12.775Z,2.10
2023-02-27T07:35:42.579Z,3.40
2023-02-27T07:38:09.855Z,3.00
2023-02-27T07:40:37.199Z,3.05
2023-02-27T07:43:04.526Z,3.67
2023-02-27T07:45:31.853Z,2.63
2023-02-27T07:47:59.202Z,4.25
2023-02-27T07:50:26.725Z,4.15
2023-02-27T07:52:53.907Z,2.75
2023-02-27T07:55:23.675Z,3.05
2023-02-27T07:57:50.833Z,5.45
2023-02-27T08:00:18.824Z,3.90
2023-02-27T08:02:50.896Z,2.85
2023-02-27T08:05:21.141Z,2.33
2023-02-27T08:07:50.518Z,2.90
2023-02-27T08:10:17.990Z,4.93
2023-02-27T08:12:47.843Z,8.63
2023-02-27T08:15:17.664Z,2.87
2023-02-27T08:17:46.012Z,5.45
2023-02-27T08:20:14.574Z,4.38
2023-02-27T08:22:44.817Z,8.00
2023-02-27T08:25:12.252Z,6.35
2023-02-27T08:27:45.410Z,7.05
2023-02-27T08:30:17.001Z,4.43
2023-02-27T08:32:47.010Z,1.95
2023-02-27T08:35:14.663Z,4.38
2023-02-27T08:37:41.992Z,3.13
2023-02-27T08:40:10.911Z,4.50
2023-02-27T08:42:38.063Z,7.25
2023-02-27T08:45:05.777Z,4.97
2023-02-27T08:47:33.113Z,3.78
2023-02-27T08:50:00.363Z,5.15
2023-02-27T08:52:28.217Z,3.95
2023-02-27T08:54:58.378Z,3.72
2023-02-27T08:57:28.524Z,3.60
2023-02-27T08:59:55.913Z,5.38
2023-02-27T09:02:26.027Z,3.78
2023-02-27T09:04:55.615Z,2.93
2023-02-27T09:07:28.152Z,4.32
2023-02-27T09:09:55.466Z,2.60
2023-02-27T09:12:22.748Z,2.38
2023-02-27T09:14:52.479Z,3.60
2023-02-27T09:17:19.697Z,3.65
2023-02-27T09:19:46.830Z,2.67
2023-02-27T09:22:17.955Z,3.20
2023-02-27T09:24:48.204Z,5.28
2023-02-27T09:27:15.744Z,2.13
2023-02-27T09:29:45.417Z,2.83
2023-02-27T09:32:14.964Z,3.13
2023-02-27T09:34:46.418Z,5.60
2023-02-27T09:37:13.803Z,2.78
2023-02-27T09:39:46.009Z,5.18
2023-02-27T09:42:21.079Z,5.33
2023-02-27T09:45:05.788Z,5.55
2023-02-27T09:47:50.768Z,6.53
2023-02-27T09:50:41.286Z,4.82
2023-02-27T09:53:31.188Z,6.57
2023-02-27T09:56:16.174Z,9.50
2023-02-27T09:58:51.660Z,6.93
2023-02-27T10:01:27.698Z,9.18
2023-02-27T10:04:08.837Z,7.10
2023-02-27T10:07:01.367Z,6.43
2023-02-27T10:09:35.981Z,7.13
2023-02-27T10:12:31.119Z,7.50
2023-02-27T10:15:05.948Z,6.63
2023-02-27T10:17:42.722Z,6.53
2023-02-27T10:20:46.549Z,5.72
2023-02-27T10:23:22.122Z,6.97
2023-02-27T10:25:52.310Z,6.78
2023-02-27T10:28:23.048Z,7.68
2023-02-27T10:30:56.411Z,8.20
2023-02-27T10:33:40.808Z,6.93
2023-02-27T10:36:20.721Z,7.43
2023-02-27T10:39:01.593Z,6.78
2023-02-27T10:41:30.116Z,6.95
2023-02-27T10:44:00.061Z,5.90
2023-02-27T10:46:34.156Z,6.45
2023-02-27T10:49:13.993Z,6.25
2023-02-27T10:51:44.804Z,5.78
2023-02-27T10:54:17.160Z,5.60
2023-02-27T10:56:54.091Z,5.60
2023-02-27T10:59:23.552Z,5.75
2023-02-27T11:01:54.071Z,5.20
2023-02-27T11:04:48.971Z,6.30
2023-02-27T11:07:27.770Z,6.70
2023-02-27T11:10:04.011Z,9.90
2023-02-27T11:12:37.445Z,5.90
2023-02-27T11:17:46.294Z,3.67
2023-02-27T11:20:29.728Z,6.20
2023-02-27T11:23:17.636Z,5.03
2023-02-27T11:25:48.002Z,6.32
2023-02-27T11:28:28.285Z,6.25
2023-02-27T11:31:01.984Z,6.68
2023-02-27T11:33:36.319Z,5.57
2023-02-27T11:36:04.852Z,6.22
2023-02-27T11:38:32.890Z,4.43
2023-02-27T11:41:03.516Z,4.82
2023-02-27T11:43:40.144Z,4.70
2023-02-27T11:46:46.572Z,5.38
2023-02-27T11:49:31.574Z,4.50
2023-02-27T11:52:08.150Z,5.45
2023-02-27T11:54:45.460Z,5.60
2023-02-27T11:57:24.924Z,5.05
2023-02-27T12:00:06.544Z,3.15
2023-02-27T12:03:01.818Z,4.53
2023-02-27T12:05:51.164Z,5.60
2023-02-27T12:08:46.118Z,5.90
2023-02-27T12:11:28.133Z,3.92
2023-02-27T12:14:17.783Z,3.90
2023-02-27T12:16:51.209Z,4.00
2023-02-27T12:19:26.232Z,4.32
2023-02-27T12:22:03.220Z,4.53
2023-02-27T12:24:59.180Z,5.60
2023-02-27T12:27:43.778Z,5.00
2023-02-27T12:30:16.109Z,5.13
2023-02-27T12:32:50.364Z,4.03
2023-02-27T12:35:24.597Z,4.70
2023-02-27T12:37:55.100Z,4.40
2023-02-27T12:40:36.855Z,6.78
2023-02-27T12:43:13.897Z,4.43
2023-02-27T12:45:53.536Z,4.28
2023-02-27T12:48:54.771Z,5.45
2023-02-27T12:51:47.150Z,4.55
2023-02-27T12:54:22.672Z,6.25
2023-02-27T12:57:22.289Z,4.57
2023-02-27T12:59:52.968Z,6.53
2023-02-27T13:02:49.297Z,5.70
2023-02-27T13:05:28.734Z,4.40
2023-02-27T13:08:24.825Z,5.28
2023-02-27T13:11:18.633Z,4.82
2023-02-27T13:16:28.779Z,3.40
2023-02-27T13:19:06.331Z,3.72
2023-02-27T13:21:55.363Z,6.03
2023-02-27T13:24:29.045Z,4.47
2023-02-27T13:26:56.187Z,4.38
2023-02-27T13:29:34.940Z,6.22
2023-02-27T13:32:43.666Z,4.60
2023-02-27T13:35:22.620Z,4.25
2023-02-27T13:37:56.049Z,4.38
2023-02-27T13:40:41.927Z,4.03
2023-02-27T13:43:26.659Z,4.55
2023-02-27T13:46:04.162Z,4.57
2023-02-27T13:48:34.414Z,4.47
2023-02-27T13:51:01.858Z,5.30
2023-02-27T13:53:29.828Z,4.93
2023-02-27T13:56:23.437Z,4.03
2023-02-27T13:58:57.639Z,5.13
2023-02-27T14:01:28.866Z,5.95
2023-02-27T14:04:04.015Z,5.97
2023-02-27T14:06:44.237Z,3.53
2023-02-27T14:09:17.402Z,4.38
2023-02-27T14:14:49.034Z,5.78
2023-02-27T14:17:35.825Z,8.63
2023-02-27T14:20:04.458Z,5.78
2023-02-27T14:22:39.692Z,5.03
2023-02-27T14:25:23.266Z,3.97
2023-02-27T14:27:59.306Z,2.78
2023-02-27T14:30:31.228Z,4.07
2023-02-27T14:33:08.041Z,3.63
2023-02-27T14:35:38.432Z,2.92
2023-02-27T14:38:11.505Z,4.22
2023-02-27T14:41:04.692Z,4.45
2023-02-27T14:43:45.232Z,2.90
2023-02-27T14:46:36.102Z,3.85
2023-02-27T14:49:05.180Z,3.97
2023-02-27T14:51:35.794Z,3.40
2023-02-27T14:54:14.973Z,3.80
2023-02-27T14:56:54.086Z,3.28
2023-02-27T14:59:36.803Z,4.18
2023-02-27T15:02:18.378Z,4.23
2023-02-27T15:04:46.428Z,2.65
2023-02-27T15:07:26.725Z,3.00
2023-02-27T15:09:58.791Z,2.75
2023-02-27T15:12:29.232Z,2.47
2023-02-27T15:15:02.339Z,3.38
2023-02-27T15:17:41.450Z,3.95
2023-02-27T15:20:27.445Z,2.90
2023-02-27T15:22:58.047Z,3.38
2023-02-27T15:25:39.816Z,3.90
2023-02-27T15:28:26.428Z,3.38
2023-02-27T15:30:59.344Z,4.38
2023-02-27T15:33:30.334Z,3.42
2023-02-27T15:36:01.851Z,4.68
2023-02-27T15:38:30.670Z,4.65
2023-02-27T15:40:59.970Z,4.00
2023-02-27T15:43:28.702Z,3.60
2023-02-27T15:45:58.185Z,3.40
2023-02-27T15:48:29.421Z,3.58
2023-02-27T15:51:03.537Z,4.57
2023-02-27T15:53:33.873Z,3.42
2023-02-27T15:56:06.145Z,4.90
2023-02-27T15:58:40.045Z,2.33
2023-02-27T16:01:17.190Z,3.20
2023-02-27T16:03:49.115Z,4.10
2023-02-27T16:06:23.391Z,3.42
2023-02-27T16:08:52.665Z,2.50
2023-02-27T16:11:26.690Z,3.85
2023-02-27T16:13:54.602Z,3.60
2023-02-27T16:16:38.732Z,3.10
2023-02-27T16:19:30.074Z,3.75
2023-02-27T16:22:14.072Z,4.05
2023-02-27T16:24:43.410Z,41.58
2023-02-27T16:27:25.163Z,17.70
2023-02-27T16:29:55.504Z,12.32
2023-02-27T16:32:33.029Z,19.13
2023-02-27T16:35:23.092Z,24.20
2023-02-27T16:37:51.409Z,14.68
2023-02-27T16:40:25.485Z,7.13
2023-02-27T16:42:53.351Z,9.55
2023-02-27T16:45:23.117Z,9.45
2023-02-27T16:47:58.560Z,9.98
2023-02-27T16:50:33.556Z,7.65
2023-02-27T16:53:01.144Z,8.38
2023-02-27T16:55:33.145Z,7.28
2023-02-27T16:58:00.932Z,5.07
2023-02-27T17:00:30.711Z,8.50
2023-02-27T17:02:57.876Z,5.13
2023-02-27T17:05:26.274Z,7.35
2023-02-27T17:07:55.677Z,7.70
2023-02-27T17:10:26.204Z,9.02
2023-02-27T17:12:54.018Z,12.55
2023-02-27T17:15:21.967Z,12.90
2023-02-27T17:17:50.451Z,5.63
2023-02-27T17:20:17.772Z,4.68
2023-02-27T17:22:45.427Z,7.68
2023-02-27T17:25:15.895Z,5.15
2023-02-27T17:27:43.903Z,5.60
2023-02-27T17:30:16.513Z,5.50
2023-02-27T17:32:45.850Z,4.45
2023-02-27T17:35:17.451Z,6.47
2023-02-27T17:37:44.701Z,5.82
2023-02-27T17:40:14.350Z,3.42
2023-02-27T17:42:41.717Z,4.18
2023-02-27T17:45:09.965Z,5.70
2023-02-27T17:47:40.017Z,4.72
2023-02-27T17:50:07.746Z,5.20
2023-02-27T17:52:36.943Z,4.40
2023-02-27T17:55:05.926Z,3.67
2023-02-27T17:57:35.789Z,4.70
2023-02-27T18:00:06.723Z,3.58
2023-02-27T18:02:34.154Z,4.03
2023-02-27T18:05:04.709Z,3.63
2023-02-27T18:07:32.409Z,4.63
2023-02-27T18:10:00.763Z,5.82
2023-02-27T18:12:28.018Z,7.15
2023-02-27T18:14:56.253Z,5.57
2023-02-27T18:17:23.845Z,5.95
2023-02-27T18:19:51.188Z,5.50
2023-02-27T18:22:22.098Z,4.93
2023-02-27T18:24:53.712Z,8.18
2023-02-27T18:27:22.082Z,5.63
2023-02-27T18:29:49.812Z,5.00
2023-02-27T18:32:17.631Z,5.90
2023-02-27T18:34:47.583Z,4.63
2023-02-27T18:37:14.834Z,4.35
2023-02-27T18:39:44.575Z,5.65
2023-02-27T18:42:11.898Z,5.40
2023-02-27T18:44:41.368Z,6.63
2023-02-27T18:47:09.583Z,5.18
2023-02-27T18:49:39.325Z,5.78
2023-02-27T18:52:06.702Z,7.40
2023-02-27T18:54:36.468Z,4.68
2023-02-27T18:57:03.783Z,4.82
2023-02-27T18:59:31.548Z,6.13
2023-02-27T19:01:58.962Z,5.20
2023-02-27T19:04:26.269Z,4.32
2023-02-27T19:06:53.694Z,6.10
2023-02-27T19:09:22.318Z,4.60
2023-02-27T19:11:49.578Z,4.88
2023-02-27T19:14:17.063Z,6.32
2023-02-27T19:16:46.069Z,5.30
2023-02-27T19:19:13.397Z,6.15
2023-02-27T19:21:40.901Z,4.57
2023-02-27T19:24:10.161Z,5.85
2023-02-27T19:26:37.805Z,4.55
2023-02-27T19:29:07.776Z,4.97
2023-02-27T19:31:37.523Z,5.13
2023-02-27T19:34:07.545Z,4.28
2023-02-27T19:36:35.957Z,4.55
2023-02-27T19:39:04.342Z,5.50
2023-02-27T19:41:33.402Z,4.53
2023-02-27T19:44:03.456Z,3.80
2023-02-27T19:46:41.184Z,5.85
2023-02-27T19:49:09.073Z,4.07
2023-02-27T19:51:36.330Z,5.82
2023-02-27T19:54:08.750Z,4.25
2023-02-27T19:56:38.531Z,8.20
2023-02-27T19:59:05.977Z,7.22
2023-02-27T20:01:36.224Z,9.85
2023-02-27T20:04:07.578Z,7.47
2023-02-27T20:06:42.120Z,7.13
2023-02-27T20:09:13.255Z,7.07
2023-02-27T20:11:42.014Z,6.97
2023-02-27T20:14:13.965Z,8.95
2023-02-27T20:16:44.609Z,4.97
2023-02-27T20:19:18.029Z,7.03
2023-02-27T20:21:49.120Z,7.88
2023-02-27T20:24:18.777Z,4.88
2023-02-27T20:26:50.608Z,7.78
2023-02-27T20:29:23.556Z,3.90
2023-02-27T20:31:55.679Z,5.80
2023-02-27T20:34:26.319Z,5.60
2023-02-27T20:36:57.570Z,5.22
2023-02-27T20:39:25.132Z,6.05
2023-02-27T20:41:52.498Z,5.47
2023-02-27T20:44:22.001Z,5.55
2023-02-27T20:46:51.764Z,5.85
2023-02-27T20:49:22.722Z,4.18
2023-02-27T20:51:50.123Z,5.05
2023-02-27T20:54:20.720Z,3.75
2023-02-27T20:56:52.094Z,4.22
2023-02-27T20:59:21.421Z,4.10
2023-02-27T21:01:52.031Z,4.97
2023-02-27T21:04:43.136Z,3.88
2023-02-27T21:07:15.665Z,4.75
2023-02-27T21:09:43.584Z,3.60
2023-02-27T21:12:11.830Z,4.68
2023-02-27T21:14:38.938Z,3.95
2023-02-27T21:17:08.028Z,5.38
2023-02-27T21:19:35.225Z,3.42
2023-02-27T21:22:05.519Z,3.53
2023-02-27T21:24:34.951Z,3.38
2023-02-27T21:27:07.334Z,4.82
2023-02-27T21:29:37.053Z,3.80
2023-02-27T21:32:07.450Z,2.78
2023-02-27T21:34:35.019Z,2.72
2023-02-27T21:37:06.308Z,3.97
2023-02-27T21:39:33.672Z,3.95
2023-02-27T21:42:01.942Z,4.70
2023-02-27T21:44:31.905Z,3.50
2023-02-27T21:46:59.383Z,3.33
2023-02-27T21:49:31.376Z,2.55
2023-02-27T21:52:00.912Z,3.47
2023-02-27T21:54:28.259Z,3.50
2023-02-27T21:57:03.159Z,3.30
2023-02-27T21:59:31.269Z,3.72
2023-02-27T22:02:00.972Z,3.63
2023-02-27T22:04:28.354Z,2.92
2023-02-27T22:06:59.408Z,3.60
2023-02-27T22:09:29.031Z,3.38
2023-02-27T22:11:56.331Z,3.25
2023-02-27T22:14:25.081Z,3.88
2023-02-27T22:16:52.641Z,2.53
2023-02-27T22:19:20.814Z,3.85
2023-02-27T22:21:48.260Z,3.55
2023-02-27T22:24:15.525Z,3.30
2023-02-27T22:26:44.528Z,2.80
2023-02-27T22:29:11.900Z,3.00
2023-02-27T22:31:39.328Z,3.05
2023-02-27T22:34:18.384Z,2.58
2023-02-27T22:36:48.473Z,3.38
2023-02-27T22:39:15.975Z,3.00
2023-02-27T22:41:43.151Z,3.85
2023-02-27T22:44:13.430Z,2.92
2023-02-27T22:46:49.779Z,3.35
2023-02-27T22:49:22.817Z,4.45
2023-02-27T22:51:51.975Z,2.72
2023-02-27T22:54:21.408Z,2.78
2023-02-27T22:56:57.909Z,4.28
2023-02-27T22:59:28.136Z,2.78
2023-02-27T23:01:55.448Z,4.82
2023-02-27T23:04:24.869Z,2.80
2023-02-27T23:06:54.746Z,3.47
2023-02-27T23:09:25.282Z,3.15
2023-02-27T23:11:55.791Z,2.92
2023-02-27T23:14:23.004Z,3.40
2023-02-27T23:16:54.834Z,3.33
2023-02-27T23:19:22.631Z,3.05
2023-02-27T23:21:50.013Z,3.00
2023-02-27T23:24:18.807Z,3.25
2023-02-27T23:26:50.639Z,3.03
2023-02-27T23:29:18.493Z,3.38
2023-02-27T23:31:46.142Z,3.15
2023-02-27T23:34:16.386Z,3.78
2023-02-27T23:36:45.962Z,3.03
2023-02-27T23:39:17.646Z,2.67
2023-02-27T23:41:44.855Z,4.22
2023-02-27T23:44:30.807Z,2.67
2023-02-27T23:47:00.333Z,2.97
2023-02-27T23:49:27.501Z,3.00
2023-02-27T23:51:54.821Z,4.63
2023-02-27T23:54:24.524Z,4.38
2023-02-27T23:56:51.823Z,3.08
2023-02-27T23:59:21.165Z,3.40
